Abeytas, New Mexico
Current Conditions -  °F | °C
As of 1:35 AM on Saturday 27 Dec 2014 (Local Time) from KE80 Reporting Station
Clear Clear  
Wind Chill:   Ceiling: Unl
Heat Index: 17°   Visibility: 10mi
Dew Point: 11°   Wind: 7mph
Humidity: 78%   Direction: 360°N
Pressure: 30.08"   Gusts: NA
Location:  34.4828°N, 106.804°W
Report Text: KE80 270835Z AUTO 36006KT 10SM CLR M08/M11 A3008 RMK AO2 T10831115
Loading
Personal Weather Stations






























Interactive Weather Map New forecast layout! Learn more

10-Day Weather Forecast

Advertisements
Track Severe Weather on mobile